createdAt,value
2023-01-17T00:09:52.825Z,835.0434782608696
2023-01-17T00:16:19.943Z,847.304347826087
2023-01-17T00:22:46.693Z,930.3913043478261
2023-01-17T00:33:08.034Z,1069.2441471571906
2023-01-17T00:39:34.993Z,1150.6454849498327
2023-01-17T00:46:01.959Z,1213.3344481605352
2023-01-17T00:52:26.672Z,1352.0267558528428
2023-01-17T00:58:51.086Z,1383.190635451505
2023-01-17T01:16:32.754Z,1595.5083612040135
2023-01-17T01:22:56.646Z,1556.408026755853
2023-01-17T01:29:19.859Z,1295.628762541806
2023-01-17T01:35:43.888Z,1365.933110367893
2023-01-17T01:47:21.074Z,1619.809364548495
2023-01-17T01:53:45.567Z,1223.0267558528428
2023-01-17T02:02:18.563Z,1009.0033444816054
2023-01-17T02:08:43.301Z,1051.7257525083612
2023-01-17T02:28:26.194Z,1322.9197324414715
2023-01-17T02:34:51.149Z,1336.6655518394648
2023-01-17T02:41:16.626Z,1229.468227424749
2023-01-17T02:47:40.764Z,1181.6789297658863
2023-01-17T03:00:47.555Z,1022.1371237458194
2023-01-17T03:07:11.575Z,867.8327759197324
2023-01-17T03:15:50.886Z,605.1872909698997
2023-01-17T03:22:13.597Z,344.066889632107
2023-01-17T03:28:36.560Z,276.39130434782606
2023-01-17T03:39:13.303Z,191.46822742474916
2023-01-17T03:49:25.252Z,165.36120401337791
2023-01-17T03:55:49.846Z,91.65551839464882
2023-01-17T04:02:13.671Z,58.66555183946488
2023-01-17T04:08:37.414Z,41.68896321070234
2023-01-17T04:15:00.285Z,20.51839464882943
2023-01-17T04:21:22.145Z,23.237458193979933
2023-01-17T04:36:03.440Z,17.65886287625418
2023-01-17T04:42:26.221Z,38.53846153846154
2023-01-17T04:51:33.241Z,28.585284280936456
2023-01-17T04:57:55.471Z,26.25752508361204
2023-01-17T05:04:18.013Z,28.695652173913043
2023-01-17T05:10:41.319Z,31.13377926421405
2023-01-17T05:17:04.678Z,30.421404682274247
2023-01-17T05:23:29.673Z,33.561872909699
2023-01-17T05:29:56.115Z,40.123745819397996
2023-01-17T05:36:21.234Z,33.642140468227424
2023-01-17T05:42:45.088Z,50.10702341137124
2023-01-17T05:49:10.341Z,56.02675585284281
2023-01-17T05:55:33.313Z,90.03010033444816
2023-01-17T06:01:56.912Z,76.77591973244147
2023-01-17T06:08:19.777Z,85.75585284280936
2023-01-17T06:14:43.719Z,72.3010033444816
2023-01-17T06:21:07.700Z,80.75919732441471
2023-01-17T06:27:32.549Z,105.67224080267559
2023-01-17T06:33:56.970Z,99.59197324414716
2023-01-17T06:40:20.681Z,106.10367892976589
2023-01-17T06:46:44.968Z,137.97993311036788
2023-01-17T06:53:10.723Z,116.75919732441471
2023-01-17T06:59:35.418Z,147.7826086956522
2023-01-17T07:06:00.796Z,116.93979933110369
2023-01-17T07:12:26.383Z,107.98996655518394
2023-01-17T07:24:18.848Z,94.82608695652173
2023-01-17T07:30:46.049Z,109.09364548494983
2023-01-17T07:42:58.052Z,321.0
2023-01-17T07:49:38.484Z,424.75585284280936
2023-01-17T07:56:04.937Z,352.4849498327759
2023-01-17T08:02:31.407Z,267.8829431438127
2023-01-17T08:09:00.655Z,198.752508361204
2023-01-17T08:15:34.946Z,138.10033444816054
2023-01-17T08:22:02.841Z,173.6086956521739
2023-01-17T08:28:30.711Z,114.36120401337793
2023-01-17T08:34:59.970Z,102.60200668896321
2023-01-17T08:41:27.347Z,87.07023411371237
2023-01-17T08:47:55.562Z,93.44147157190635
2023-01-17T08:55:46.664Z,283.90635451505017
2023-01-17T09:02:14.595Z,272.5785953177257
2023-01-17T09:08:48.232Z,236.87959866220737
2023-01-17T09:19:24.257Z,254.8494983277592
2023-01-17T09:27:08.776Z,128.08695652173913
2023-01-17T09:33:36.446Z,184.86622073578596
2023-01-17T09:41:06.214Z,180.49163879598663
2023-01-17T09:50:19.392Z,230.97993311036788
2023-01-17T09:56:48.635Z,246.14046822742475
2023-01-17T10:03:18.096Z,219.40133779264215
2023-01-17T10:09:48.143Z,230.4581939799331
2023-01-17T10:16:18.087Z,262.04347826086956
2023-01-17T10:22:47.873Z,222.2809364548495
2023-01-17T10:29:20.053Z,130.314381270903
2023-01-17T10:35:53.282Z,162.1304347826087
2023-01-17T10:42:22.980Z,146.8695652173913
2023-01-17T10:51:09.627Z,149.53846153846155
2023-01-17T10:57:38.083Z,148.5752508361204
2023-01-17T11:08:48.378Z,143.8896321070234
2023-01-17T11:15:19.107Z,176.72909698996656
2023-01-17T11:21:48.362Z,167.30769230769232
2023-01-17T11:28:17.721Z,180.1103678929766
2023-01-17T11:34:54.517Z,178.5351170568562
2023-01-17T11:47:50.849Z,159.2608695652174
2023-01-17T11:54:19.400Z,150.8628762541806
2023-01-17T12:00:50.067Z,167.25752508361205
2023-01-17T12:07:18.594Z,175.16387959866222
2023-01-17T12:13:45.955Z,174.95317725752508
2023-01-17T12:20:15.004Z,177.41137123745818
2023-01-17T12:29:35.922Z,189.53177257525084
2023-01-17T12:36:34.317Z,232.45484949832775
2023-01-17T12:43:19.213Z,193.90635451505017
2023-01-17T12:49:48.773Z,212.33779264214047
2023-01-17T12:56:17.559Z,266.7892976588629
2023-01-17T13:02:47.751Z,252.8829431438127
2023-01-17T13:09:15.963Z,298.0735785953177
2023-01-17T13:15:44.712Z,282.8428093645485
2023-01-17T13:22:13.373Z,268.4046822742475
2023-01-17T13:28:43.287Z,356.68896321070235
2023-01-17T13:35:13.509Z,379.2040133779264
2023-01-17T13:41:42.544Z,463.38461538461536
2023-01-17T13:54:05.305Z,562.2642140468228
2023-01-17T14:00:34.680Z,660.6020066889632
2023-01-17T14:07:04.109Z,836.8896321070234
2023-01-17T14:13:42.098Z,971.5685618729098
2023-01-17T14:20:11.529Z,971.9698996655518
2023-01-17T14:26:41.084Z,1081.0936454849498
2023-01-17T14:33:20.729Z,1105.5752508361204
2023-01-17T14:39:50.295Z,916.876254180602
2023-01-17T14:50:14.607Z,908.3277591973244
2023-01-17T15:07:01.265Z,657.1705685618729
2023-01-17T15:14:01.313Z,651.4916387959867
2023-01-17T15:22:34.740Z,683.9598662207358
2023-01-17T15:30:56.731Z,648.6722408026756
2023-01-17T15:43:26.224Z,733.9464882943143
2023-01-17T15:49:52.885Z,702.0702341137123
2023-01-17T15:56:18.561Z,764.257525083612
2023-01-17T16:02:44.988Z,734.5484949832776
2023-01-17T16:09:18.860Z,795.2809364548496
2023-01-17T16:15:43.077Z,748.9264214046823
2023-01-17T16:22:08.658Z,770.8394648829432
2023-01-17T16:36:11.760Z,730.6755852842809
2023-01-17T16:42:38.205Z,787.3344481605351
2023-01-17T16:49:05.021Z,816.6421404682275
2023-01-17T16:55:34.678Z,789.6923076923077
2023-01-17T17:02:03.327Z,841.6454849498327
2023-01-17T17:19:37.369Z,918.2508361204013
2023-01-17T17:26:06.614Z,1054.8662207357859
2023-01-17T17:32:34.398Z,1054.123745819398
2023-01-17T17:43:15.855Z,1283.3478260869565
2023-01-17T17:55:52.118Z,1379.8996655518395
2023-01-17T18:02:19.010Z,1386.5418060200668
2023-01-17T18:08:49.395Z,1472.066889632107
2023-01-17T18:15:32.064Z,1464.0401337792641
2023-01-17T18:22:01.548Z,1590.561872909699
2023-01-17T18:30:14.262Z,1631.7792642140469
2023-01-17T18:37:12.985Z,2031.8929765886287
2023-01-17T18:43:43.489Z,1791.200668896321
2023-01-17T18:50:11.196Z,1936.2441471571906
2023-01-17T18:56:43.456Z,3359.648829431438
2023-01-17T19:06:25.441Z,5095.8561872909695
2023-01-17T19:12:58.604Z,2333.809364548495
2023-01-17T19:27:06.131Z,1546.7056856187291
2023-01-17T19:33:34.839Z,1473.2608695652175
2023-01-17T19:40:02.757Z,1432.3344481605352
2023-01-17T19:46:33.107Z,1487.8695652173913
2023-01-17T19:53:04.275Z,1506.3411371237457
2023-01-17T20:01:54.167Z,1472.7090301003345
2023-01-17T20:08:55.606Z,1537.836120401338
2023-01-17T20:15:26.535Z,1564.6655518394648
2023-01-17T20:28:34.319Z,1524.923076923077
2023-01-17T20:35:04.542Z,1588.6153846153845
2023-01-17T20:41:33.959Z,1551.3511705685619
2023-01-17T20:48:05.015Z,2035.1839464882944
2023-01-17T20:54:35.661Z,2006.0167224080267
2023-01-17T21:01:06.777Z,1787.9297658862877
2023-01-17T21:08:19.492Z,1779.8628762541805
2023-01-17T21:17:49.679Z,1781.6989966555184
2023-01-17T21:26:44.604Z,1888.4548494983278
2023-01-17T21:33:17.213Z,1819.163879598662
2023-01-17T21:42:35.841Z,1939.3745819397993
2023-01-17T21:59:13.355Z,1616.0267558528428
2023-01-17T22:12:02.925Z,1578.8628762541805
2023-01-17T22:18:33.437Z,1639.14381270903
2023-01-17T22:25:14.542Z,1659.1505016722408
2023-01-17T22:31:47.952Z,1843.1939799331103
2023-01-17T22:44:31.068Z,1948.836120401338
2023-01-17T22:53:13.771Z,2016.772575250836
2023-01-17T23:01:17.457Z,2059.274247491639
2023-01-17T23:15:27.221Z,2085.6220735785955
2023-01-17T23:27:42.284Z,2168.438127090301
2023-01-17T23:35:46.683Z,2237.1070234113713
2023-01-17T23:46:22.998Z,2427.7725752508363
2023-01-17T23:55:28.416Z,2458.9163879598664
